createdAt,value
2017-10-13T00:00:40.255Z,99.99
2017-10-13T00:01:40.255Z,99.99
2017-10-13T00:02:39.933Z,99.99
2017-10-13T00:03:40.246Z,99.99
2017-10-13T00:04:39.923Z,99.99
2017-10-13T00:05:40.250Z,99.99
2017-10-13T00:06:40.248Z,99.99
2017-10-13T00:07:40.248Z,99.99
2017-10-13T00:08:39.914Z,99.99
2017-10-13T00:09:40.230Z,99.99
2017-10-13T00:10:40.245Z,99.99
2017-10-13T00:11:40.227Z,99.99
2017-10-13T00:12:39.908Z,99.99
2017-10-13T00:13:40.228Z,99.99
2017-10-13T00:14:39.896Z,99.99
2017-10-13T00:15:39.897Z,99.99
2017-10-13T00:16:40.217Z,99.99
2017-10-13T00:17:40.225Z,99.99
2017-10-13T00:18:40.219Z,99.99
2017-10-13T00:19:40.217Z,99.99
2017-10-13T00:20:40.207Z,99.99
2017-10-13T00:21:39.899Z,99.99
2017-10-13T00:22:40.199Z,99.99
2017-10-13T00:23:39.875Z,99.99
2017-10-13T00:24:39.875Z,99.99
2017-10-13T00:25:39.872Z,99.99
2017-10-13T00:26:40.189Z,99.99
2017-10-13T00:27:39.865Z,99.99
2017-10-13T00:28:40.189Z,99.99
2017-10-13T00:29:40.189Z,99.99
2017-10-13T00:30:39.867Z,99.99
2017-10-13T00:31:40.202Z,99.99
2017-10-13T00:32:39.855Z,99.99
2017-10-13T00:33:40.175Z,99.99
2017-10-13T00:34:40.172Z,99.99
2017-10-13T00:35:40.173Z,99.99
2017-10-13T00:36:39.843Z,99.99
2017-10-13T00:37:39.843Z,99.99
2017-10-13T00:38:39.841Z,99.99
2017-10-13T00:39:40.170Z,99.99
2017-10-13T00:40:40.160Z,99.99
2017-10-13T00:41:40.161Z,99.99
2017-10-13T00:42:39.834Z,99.99
2017-10-13T00:43:40.160Z,99.99
2017-10-13T00:44:40.176Z,99.99
2017-10-13T00:45:39.824Z,99.99
2017-10-13T00:46:39.823Z,99.99
2017-10-13T00:47:40.138Z,99.99
2017-10-13T00:48:40.135Z,99.99
2017-10-13T00:49:40.137Z,99.99
2017-10-13T00:50:40.134Z,99.99
2017-10-13T00:51:40.129Z,99.99
2017-10-13T00:52:40.127Z,99.99
2017-10-13T00:53:40.126Z,99.99
2017-10-13T00:54:40.127Z,99.99
2017-10-13T00:55:40.118Z,99.99
2017-10-13T00:56:39.800Z,99.99
2017-10-13T00:57:40.145Z,99.99
2017-10-13T00:58:40.112Z,99.99
2017-10-13T00:59:40.130Z,99.99
2017-10-13T01:00:40.894Z,99.99
2017-10-13T01:01:40.119Z,99.99
2017-10-13T01:02:40.116Z,99.99
2017-10-13T01:03:40.097Z,99.99
2017-10-13T01:04:39.775Z,99.99
2017-10-13T01:05:39.776Z,99.99
2017-10-13T01:06:39.769Z,99.99
2017-10-13T01:07:39.777Z,99.99
2017-10-13T01:08:39.760Z,99.99
2017-10-13T01:09:40.083Z,99.99
2017-10-13T01:10:40.077Z,99.99
2017-10-13T01:11:39.753Z,99.99
2017-10-13T01:12:40.075Z,99.99
2017-10-13T01:13:40.071Z,99.99
2017-10-13T01:14:40.069Z,99.99
2017-10-13T01:15:40.315Z,99.99
2017-10-13T01:16:40.068Z,99.99
2017-10-13T01:17:40.067Z,99.99
2017-10-13T01:18:40.067Z,99.99
2017-10-13T01:19:40.090Z,99.99
2017-10-13T01:20:39.743Z,99.99
2017-10-13T01:21:40.047Z,99.99
2017-10-13T01:22:40.047Z,99.99
2017-10-13T01:23:39.724Z,99.99
2017-10-13T01:24:40.044Z,99.99
2017-10-13T01:25:40.038Z,99.99
2017-10-13T01:26:39.712Z,99.99
2017-10-13T01:27:40.031Z,99.99
2017-10-13T01:28:39.709Z,99.99
2017-10-13T01:29:39.710Z,99.99
2017-10-13T01:30:40.039Z,99.99
2017-10-13T01:31:40.030Z,99.99
2017-10-13T01:32:40.019Z,99.99
2017-10-13T01:33:40.021Z,99.99
2017-10-13T01:34:39.694Z,99.99
2017-10-13T01:35:39.699Z,99.99
2017-10-13T01:36:39.689Z,99.99
2017-10-13T01:37:40.008Z,99.99
2017-10-13T01:38:40.007Z,99.99
2017-10-13T01:39:39.999Z,99.99
2017-10-13T01:40:39.683Z,99.99
2017-10-13T01:41:39.999Z,99.99
2017-10-13T01:42:39.671Z,99.99
2017-10-13T01:43:39.989Z,99.99
2017-10-13T01:44:39.995Z,99.99
2017-10-13T01:45:39.988Z,99.99
2017-10-13T01:46:39.988Z,99.99
2017-10-13T01:47:39.978Z,99.99
2017-10-13T01:48:39.984Z,99.99
2017-10-13T01:49:39.974Z,99.99
2017-10-13T01:50:39.981Z,99.99
2017-10-13T01:51:39.647Z,99.99
2017-10-13T01:52:39.964Z,99.99
2017-10-13T01:53:39.974Z,99.99
2017-10-13T01:54:39.641Z,99.99
2017-10-13T01:55:39.969Z,99.99
2017-10-13T01:56:39.635Z,99.99
2017-10-13T01:57:39.632Z,99.99
2017-10-13T01:58:39.951Z,99.99
2017-10-13T01:59:39.625Z,99.99
2017-10-13T02:00:39.948Z,99.99
2017-10-13T02:01:39.942Z,99.99
2017-10-13T02:02:39.954Z,99.99
2017-10-13T02:03:39.613Z,99.99
2017-10-13T02:04:39.614Z,99.99
2017-10-13T02:05:39.929Z,99.99
2017-10-13T02:06:39.605Z,99.99
2017-10-13T02:07:39.609Z,99.99
2017-10-13T02:08:39.605Z,99.99
2017-10-13T02:09:39.598Z,99.99
2017-10-13T02:10:39.599Z,99.99
2017-10-13T02:11:39.982Z,99.99
2017-10-13T02:12:39.667Z,99.99
2017-10-13T02:13:39.908Z,99.99
2017-10-13T02:14:39.583Z,99.99
2017-10-13T02:15:39.582Z,99.99
2017-10-13T02:16:39.906Z,99.99
2017-10-13T02:17:39.574Z,99.99
2017-10-13T02:18:39.894Z,99.99
2017-10-13T02:19:39.887Z,99.99
2017-10-13T02:20:39.887Z,99.99
2017-10-13T02:21:39.570Z,99.99
2017-10-13T02:22:39.881Z,99.99
2017-10-13T02:23:39.880Z,99.99
2017-10-13T02:24:39.875Z,99.99
2017-10-13T02:25:39.552Z,99.99
2017-10-13T02:26:39.871Z,99.99
2017-10-13T02:27:39.546Z,99.99
2017-10-13T02:28:39.547Z,99.99
2017-10-13T02:29:39.863Z,99.99
2017-10-13T02:30:39.859Z,99.99
2017-10-13T02:31:41.612Z,99.99
2017-10-13T02:32:39.852Z,99.99
2017-10-13T02:33:39.857Z,99.99
2017-10-13T02:34:39.851Z,99.99
2017-10-13T02:35:39.845Z,99.99
2017-10-13T02:36:39.847Z,99.99
2017-10-13T02:37:39.515Z,99.99
2017-10-13T02:38:39.510Z,99.99
2017-10-13T02:39:39.511Z,99.99
2017-10-13T02:40:39.827Z,99.99
2017-10-13T02:41:39.831Z,99.99
2017-10-13T02:42:39.521Z,99.99
2017-10-13T02:43:39.830Z,99.99
2017-10-13T02:44:39.821Z,99.99
2017-10-13T02:45:39.492Z,99.99
2017-10-13T02:46:39.819Z,99.99
2017-10-13T02:47:39.848Z,99.99
2017-10-13T02:48:39.482Z,99.99
2017-10-13T02:49:39.478Z,99.99
2017-10-13T02:50:39.476Z,99.99
2017-10-13T02:51:39.804Z,99.99
2017-10-13T02:52:39.789Z,99.99
2017-10-13T02:53:39.790Z,99.99
2017-10-13T02:54:39.465Z,99.99
2017-10-13T02:55:39.464Z,99.99
2017-10-13T02:56:39.467Z,99.99
2017-10-13T02:57:39.786Z,99.99
2017-10-13T02:58:39.786Z,99.99
2017-10-13T02:59:39.472Z,99.99
2017-10-13T03:00:39.776Z,99.99
2017-10-13T03:01:41.529Z,99.99
2017-10-13T03:02:39.465Z,99.99
2017-10-13T03:03:39.765Z,99.99
2017-10-13T03:04:39.755Z,99.99
2017-10-13T03:05:39.755Z,99.99
2017-10-13T03:06:39.431Z,99.99
2017-10-13T03:07:39.752Z,99.99
2017-10-13T03:08:39.424Z,99.99
2017-10-13T03:09:39.424Z,99.99
2017-10-13T03:10:39.743Z,99.99
2017-10-13T03:11:39.732Z,99.99
2017-10-13T03:12:39.409Z,99.99
2017-10-13T03:13:39.728Z,99.99
2017-10-13T03:14:39.724Z,99.99
2017-10-13T03:15:39.719Z,99.99
2017-10-13T03:16:39.398Z,99.99
2017-10-13T03:17:39.727Z,99.99
2017-10-13T03:18:39.400Z,99.99
2017-10-13T03:19:39.706Z,99.99
2017-10-13T03:20:39.708Z,99.99
2017-10-13T03:21:39.707Z,99.99
2017-10-13T03:22:39.715Z,99.99
2017-10-13T03:23:39.382Z,99.99
2017-10-13T03:24:39.698Z,99.99
2017-10-13T03:25:39.700Z,99.99
2017-10-13T03:26:39.686Z,99.99
2017-10-13T03:27:39.403Z,99.99
2017-10-13T03:28:39.368Z,99.99
2017-10-13T03:29:39.685Z,99.99
2017-10-13T03:30:39.367Z,99.99
2017-10-13T03:31:39.688Z,99.99
2017-10-13T03:32:39.670Z,99.99
2017-10-13T03:33:39.343Z,99.99
2017-10-13T03:34:39.668Z,99.99
2017-10-13T03:35:39.669Z,99.99
2017-10-13T03:36:39.651Z,99.99
2017-10-13T03:37:39.657Z,99.99
2017-10-13T03:38:39.650Z,99.99
2017-10-13T03:39:39.324Z,99.99
2017-10-13T03:40:39.646Z,99.99
2017-10-13T03:41:39.322Z,99.99
2017-10-13T03:42:39.634Z,99.99
2017-10-13T03:43:39.313Z,99.99
2017-10-13T03:44:39.636Z,99.99
2017-10-13T03:45:39.313Z,99.99
2017-10-13T03:46:39.633Z,99.99
2017-10-13T03:47:39.311Z,99.99
2017-10-13T03:48:39.616Z,99.99
2017-10-13T03:49:39.288Z,99.99
2017-10-13T03:50:39.291Z,99.99
2017-10-13T03:51:39.602Z,99.99
2017-10-13T03:52:39.280Z,99.99
2017-10-13T03:53:39.596Z,99.99
2017-10-13T03:54:39.603Z,99.99
2017-10-13T03:55:39.598Z,99.99
2017-10-13T03:56:39.586Z,99.99
2017-10-13T03:57:39.263Z,99.99
2017-10-13T03:58:39.577Z,99.99
2017-10-13T03:59:39.583Z,99.99
2017-10-13T04:00:39.574Z,99.99
2017-10-13T04:01:39.568Z,99.99
2017-10-13T04:02:39.565Z,99.99
2017-10-13T04:03:39.564Z,99.99
2017-10-13T04:04:39.241Z,99.99
2017-10-13T04:05:39.581Z,99.99
2017-10-13T04:06:39.234Z,99.99
2017-10-13T04:07:39.554Z,99.99
2017-10-13T04:08:39.549Z,99.99
2017-10-13T04:09:39.547Z,99.99
2017-10-13T04:10:39.225Z,99.99
2017-10-13T04:11:39.543Z,99.99
2017-10-13T04:12:39.542Z,99.99
2017-10-13T04:13:39.532Z,99.99
2017-10-13T04:14:39.211Z,99.99
2017-10-13T04:15:39.209Z,99.99
2017-10-13T04:16:39.526Z,99.99
2017-10-13T04:17:39.525Z,99.99
2017-10-13T04:18:39.520Z,99.99
2017-10-13T04:19:39.522Z,99.99
2017-10-13T04:20:39.513Z,99.99
2017-10-13T04:21:39.523Z,99.99
2017-10-13T04:22:39.189Z,99.99
2017-10-13T04:23:39.511Z,99.99
2017-10-13T04:24:39.503Z,99.99
2017-10-13T04:25:39.505Z,99.99
2017-10-13T04:26:39.512Z,99.99
2017-10-13T04:27:39.497Z,99.99
2017-10-13T04:28:39.491Z,99.99
2017-10-13T04:29:39.494Z,99.99
2017-10-13T04:30:39.489Z,99.99
2017-10-13T04:31:39.487Z,99.99
2017-10-13T04:32:42.415Z,99.99
2017-10-13T04:33:39.487Z,99.99
2017-10-13T04:34:39.477Z,99.99
2017-10-13T04:35:39.478Z,99.99
2017-10-13T04:36:39.151Z,99.99
2017-10-13T04:37:39.464Z,99.99
2017-10-13T04:38:39.471Z,99.99
2017-10-13T04:39:39.468Z,99.99
2017-10-13T04:40:39.140Z,99.99
2017-10-13T04:41:39.455Z,99.99
2017-10-13T04:42:39.457Z,99.99
2017-10-13T04:43:39.454Z,99.99
2017-10-13T04:44:39.122Z,99.99
2017-10-13T04:45:39.120Z,99.99
2017-10-13T04:46:39.439Z,99.99
2017-10-13T04:47:39.439Z,99.99
2017-10-13T04:48:39.431Z,99.99
2017-10-13T04:49:39.109Z,99.99
2017-10-13T04:50:39.494Z,99.99
2017-10-13T04:51:39.436Z,99.99
2017-10-13T04:52:39.431Z,99.99
2017-10-13T04:53:39.102Z,99.99
2017-10-13T04:54:39.094Z,99.99
2017-10-13T04:55:39.104Z,99.99
2017-10-13T04:56:39.092Z,99.99
2017-10-13T04:57:39.087Z,99.99
2017-10-13T04:58:39.084Z,99.99
2017-10-13T04:59:39.082Z,99.99
2017-10-13T05:00:39.399Z,99.99
2017-10-13T05:01:39.403Z,99.99
2017-10-13T05:02:39.396Z,99.99
2017-10-13T05:03:39.071Z,99.99
2017-10-13T05:04:39.068Z,99.99
2017-10-13T05:05:39.388Z,99.99
2017-10-13T05:06:39.387Z,99.99
2017-10-13T05:07:39.383Z,99.99
2017-10-13T05:08:39.378Z,99.99
2017-10-13T05:09:39.061Z,99.99
2017-10-13T05:10:39.058Z,99.99
2017-10-13T05:11:39.055Z,99.99
2017-10-13T05:12:39.369Z,99.99
2017-10-13T05:13:39.373Z,99.99
2017-10-13T05:14:39.371Z,99.99
2017-10-13T05:15:39.362Z,99.99
2017-10-13T05:16:39.356Z,99.99
2017-10-13T05:17:39.033Z,99.99
2017-10-13T05:18:39.031Z,99.99
2017-10-13T05:19:39.356Z,99.99
2017-10-13T05:20:39.352Z,99.99
2017-10-13T05:21:39.350Z,99.99
2017-10-13T05:22:39.022Z,99.99
2017-10-13T05:23:39.022Z,99.99
2017-10-13T05:24:39.019Z,99.99
2017-10-13T05:25:39.341Z,99.99
2017-10-13T05:26:39.335Z,99.99
2017-10-13T05:27:39.014Z,99.99
2017-10-13T05:28:39.325Z,99.99
2017-10-13T05:29:39.327Z,99.99
2017-10-13T05:30:39.337Z,99.99
2017-10-13T05:31:39.318Z,99.99
2017-10-13T05:32:39.317Z,99.99
2017-10-13T05:33:42.513Z,99.99
2017-10-13T05:34:39.310Z,99.99
2017-10-13T05:35:39.315Z,99.99
2017-10-13T05:36:38.983Z,99.99
2017-10-13T05:37:39.310Z,99.99
2017-10-13T05:38:39.298Z,99.99
2017-10-13T05:39:38.977Z,99.99
2017-10-13T05:40:39.292Z,99.99
2017-10-13T05:41:39.291Z,99.99
2017-10-13T05:42:38.984Z,99.99
2017-10-13T05:43:39.282Z,99.99
2017-10-13T05:44:38.961Z,99.99
2017-10-13T05:45:39.282Z,99.99
2017-10-13T05:46:39.276Z,99.99
2017-10-13T05:47:39.269Z,99.99
2017-10-13T05:48:39.266Z,99.99
2017-10-13T05:49:39.278Z,99.99
2017-10-13T05:50:39.259Z,99.99
2017-10-13T05:51:39.261Z,99.99
2017-10-13T05:52:39.254Z,99.99
2017-10-13T05:53:39.252Z,99.99
2017-10-13T05:54:39.254Z,99.99
2017-10-13T05:55:39.266Z,99.99
2017-10-13T05:56:39.238Z,99.99
2017-10-13T05:57:38.922Z,99.99
2017-10-13T05:58:38.913Z,99.99
2017-10-13T05:59:38.910Z,99.99
2017-10-13T06:00:38.907Z,99.99
2017-10-13T06:01:39.222Z,99.99
2017-10-13T06:02:39.224Z,99.99
2017-10-13T06:03:39.216Z,99.99
2017-10-13T06:04:39.214Z,99.99
2017-10-13T06:05:39.224Z,99.99
2017-10-13T06:06:39.208Z,99.99
2017-10-13T06:07:39.207Z,99.99
2017-10-13T06:08:39.205Z,99.99
2017-10-13T06:09:39.206Z,99.99
2017-10-13T06:10:39.202Z,99.99
2017-10-13T06:11:38.873Z,99.99
2017-10-13T06:12:39.198Z,99.99
2017-10-13T06:13:39.189Z,99.99
2017-10-13T06:14:39.198Z,99.99
2017-10-13T06:15:39.183Z,99.99
2017-10-13T06:16:39.177Z,99.99
2017-10-13T06:17:39.185Z,99.99
2017-10-13T06:18:39.169Z,99.99
2017-10-13T06:19:39.427Z,99.99
2017-10-13T06:20:39.165Z,99.99
2017-10-13T06:21:38.839Z,99.99
2017-10-13T06:22:39.160Z,99.99
2017-10-13T06:23:38.834Z,99.99
2017-10-13T06:24:39.153Z,99.99
2017-10-13T06:25:39.159Z,99.99
2017-10-13T06:26:39.151Z,99.99
2017-10-13T06:27:39.146Z,99.99
2017-10-13T06:28:38.821Z,99.99
2017-10-13T06:29:38.820Z,99.99
2017-10-13T06:30:39.157Z,99.99
2017-10-13T06:31:39.135Z,99.99
2017-10-13T06:32:39.126Z,99.99
2017-10-13T06:33:38.809Z,99.99
2017-10-13T06:34:41.033Z,99.99
2017-10-13T06:35:38.795Z,99.99
2017-10-13T06:36:38.792Z,99.99
2017-10-13T06:37:38.788Z,99.99
2017-10-13T06:38:38.788Z,99.99
2017-10-13T06:39:39.594Z,99.99
2017-10-13T06:40:38.786Z,99.99
2017-10-13T06:41:38.784Z,99.99
2017-10-13T06:42:39.105Z,99.99
2017-10-13T06:43:39.099Z,99.99
2017-10-13T06:44:39.093Z,99.99
2017-10-13T06:45:39.089Z,99.99
2017-10-13T06:46:38.769Z,99.99
2017-10-13T06:47:39.085Z,99.99
2017-10-13T06:48:39.078Z,99.99
2017-10-13T06:49:39.102Z,99.99
2017-10-13T06:50:39.111Z,99.99
2017-10-13T06:51:39.078Z,99.99
2017-10-13T06:52:39.081Z,99.99
2017-10-13T06:53:39.079Z,99.99
2017-10-13T06:54:38.746Z,99.99
2017-10-13T06:55:39.079Z,99.99
2017-10-13T06:56:39.066Z,99.99
2017-10-13T06:57:39.066Z,99.99
2017-10-13T06:58:39.056Z,99.99
2017-10-13T06:59:39.053Z,99.99
2017-10-13T07:00:39.051Z,99.99
2017-10-13T07:01:38.744Z,99.99
2017-10-13T07:02:39.046Z,99.99
2017-10-13T07:03:39.044Z,99.99
2017-10-13T07:04:39.043Z,99.99
2017-10-13T07:05:39.044Z,99.99
2017-10-13T07:06:38.718Z,99.99
2017-10-13T07:07:38.717Z,99.99
2017-10-13T07:08:38.715Z,99.99
2017-10-13T07:09:39.035Z,99.71
2017-10-13T07:10:39.038Z,99.52
2017-10-13T07:11:39.033Z,98.85
2017-10-13T07:12:39.031Z,97.32
2017-10-13T07:13:39.035Z,95.17
2017-10-13T07:14:39.033Z,92.25
2017-10-13T07:15:39.030Z,90.16
2017-10-13T07:16:38.704Z,87.81
2017-10-13T07:17:39.022Z,86.61
2017-10-13T07:18:38.703Z,84.79
2017-10-13T07:19:39.025Z,83.39
2017-10-13T07:20:38.703Z,82.48
2017-10-13T07:21:38.705Z,81.23
2017-10-13T07:22:39.035Z,79.93
2017-10-13T07:23:38.705Z,78.69
2017-10-13T07:24:39.028Z,77.29
2017-10-13T07:25:38.708Z,76.07
2017-10-13T07:26:39.032Z,74.35
2017-10-13T07:27:39.033Z,73.04
2017-10-13T07:28:38.713Z,73.43
2017-10-13T07:29:39.041Z,72.85
2017-10-13T07:30:39.037Z,72.28
2017-10-13T07:31:38.719Z,70.87
2017-10-13T07:32:39.043Z,70.29
2017-10-13T07:33:39.056Z,69.34
2017-10-13T07:34:39.051Z,70.49
2017-10-13T07:35:40.498Z,70.68
2017-10-13T07:36:39.057Z,70.39
2017-10-13T07:37:38.732Z,70.49
2017-10-13T07:38:39.058Z,70.68
2017-10-13T07:39:39.062Z,70.39
2017-10-13T07:40:38.744Z,70.68
2017-10-13T07:41:39.066Z,70.97
2017-10-13T07:42:39.070Z,69.53
2017-10-13T07:43:38.753Z,69.53
2017-10-13T07:44:39.080Z,69.27
2017-10-13T07:45:39.079Z,68.31
2017-10-13T07:46:39.081Z,68.12
2017-10-13T07:47:38.763Z,68.41
2017-10-13T07:48:39.093Z,67.35
2017-10-13T07:49:39.090Z,66.91
2017-10-13T07:50:39.146Z,66.33
2017-10-13T07:51:38.775Z,65.97
2017-10-13T07:52:39.107Z,66.81
2017-10-13T07:53:39.111Z,67
2017-10-13T07:54:39.113Z,67.68
2017-10-13T07:55:39.117Z,66.91
2017-10-13T07:56:39.123Z,66.52
2017-10-13T07:57:39.125Z,67.19
2017-10-13T07:58:38.811Z,67.48
2017-10-13T07:59:39.132Z,68.6
2017-10-13T08:00:39.937Z,69.43
2017-10-13T08:01:39.134Z,71.22
2017-10-13T08:02:38.812Z,72.81
2017-10-13T08:03:38.830Z,74.79
2017-10-13T08:04:38.827Z,76.71
2017-10-13T08:05:39.153Z,78.11
2017-10-13T08:06:38.826Z,79.41
2017-10-13T08:07:39.154Z,81.62
2017-10-13T08:08:39.153Z,82.24
2017-10-13T08:09:39.157Z,83.93
2017-10-13T08:10:39.155Z,84.41
2017-10-13T08:11:39.156Z,84.69
2017-10-13T08:12:39.159Z,85.17
2017-10-13T08:13:39.262Z,85.46
2017-10-13T08:14:39.554Z,85.65
2017-10-13T08:15:39.180Z,85.75
2017-10-13T08:16:39.162Z,85.84
2017-10-13T08:17:39.165Z,86.51
2017-10-13T08:18:38.849Z,86.22
2017-10-13T08:19:39.165Z,86.51
2017-10-13T08:20:39.170Z,86.57
2017-10-13T08:21:39.173Z,86.9
2017-10-13T08:22:39.167Z,87.52
2017-10-13T08:23:39.169Z,86.94
2017-10-13T08:24:39.174Z,87.33
2017-10-13T08:25:39.168Z,87.33
2017-10-13T08:26:39.173Z,87.9
2017-10-13T08:27:39.169Z,88.09
2017-10-13T08:28:38.850Z,87.81
2017-10-13T08:29:38.853Z,87.9
2017-10-13T08:30:39.180Z,88.23
2017-10-13T08:31:39.181Z,88
2017-10-13T08:32:39.174Z,88.57
2017-10-13T08:33:39.173Z,87.85
2017-10-13T08:34:39.172Z,87.85
2017-10-13T08:35:39.179Z,88.33
2017-10-13T08:36:39.176Z,87.71
2017-10-13T08:37:39.174Z,88.04
2017-10-13T08:38:38.851Z,88.62
2017-10-13T08:39:38.851Z,88.13
2017-10-13T08:40:38.854Z,88.13
2017-10-13T08:41:38.852Z,88.04
2017-10-13T08:42:38.855Z,87.47
2017-10-13T08:43:38.852Z,87.66
2017-10-13T08:44:39.178Z,86.22
2017-10-13T08:45:38.856Z,86.74
2017-10-13T08:46:39.176Z,85.88
2017-10-13T08:47:39.225Z,85.6
2017-10-13T08:48:39.181Z,86.08
2017-10-13T08:49:38.856Z,86.17
2017-10-13T08:50:39.185Z,85.6
2017-10-13T08:51:38.969Z,85.88
2017-10-13T08:52:38.854Z,86.17
2017-10-13T08:53:38.857Z,85.98
2017-10-13T08:54:38.856Z,85.88
2017-10-13T08:55:39.197Z,85.79
2017-10-13T08:56:38.862Z,85.41
2017-10-13T08:57:38.858Z,85.31
2017-10-13T08:58:39.181Z,85.25
2017-10-13T08:59:38.875Z,85.54
2017-10-13T09:00:38.864Z,85.06
2017-10-13T09:01:39.182Z,85.25
2017-10-13T09:02:39.193Z,85.12
2017-10-13T09:03:39.184Z,86.36
2017-10-13T09:04:38.856Z,85.69
2017-10-13T09:05:38.862Z,86.36
2017-10-13T09:06:38.861Z,85.69
2017-10-13T09:07:39.189Z,86.17
2017-10-13T09:08:39.186Z,85.93
2017-10-13T09:09:38.864Z,85.25
2017-10-13T09:10:39.191Z,85.35
2017-10-13T09:11:39.193Z,84.88
2017-10-13T09:12:38.865Z,84.3
2017-10-13T09:13:38.859Z,84.39
2017-10-13T09:14:39.189Z,84.39
2017-10-13T09:15:39.190Z,84.01
2017-10-13T09:16:39.191Z,84.58
2017-10-13T09:17:39.190Z,84.68
2017-10-13T09:18:39.193Z,84.49
2017-10-13T09:19:38.864Z,84.53
2017-10-13T09:20:38.865Z,84.72
2017-10-13T09:21:38.914Z,84.15
2017-10-13T09:22:39.195Z,83.76
2017-10-13T09:23:39.191Z,83.58
2017-10-13T09:24:38.867Z,84.15
2017-10-13T09:25:38.864Z,83.19
2017-10-13T09:26:38.867Z,83.67
2017-10-13T09:27:39.198Z,83.58
2017-10-13T09:28:39.198Z,83.95
2017-10-13T09:29:39.199Z,84.34
2017-10-13T09:30:39.198Z,84.44
2017-10-13T09:31:39.198Z,84.05
2017-10-13T09:32:39.202Z,84.05
2017-10-13T09:33:39.200Z,84.63
2017-10-13T09:34:38.875Z,84.15
2017-10-13T09:35:38.890Z,83.95
2017-10-13T09:36:40.194Z,84.05
2017-10-13T09:37:39.203Z,83.38
2017-10-13T09:38:38.874Z,83.48
2017-10-13T09:39:39.204Z,83.33
2017-10-13T09:40:39.212Z,82.65
2017-10-13T09:41:39.212Z,82.65
2017-10-13T09:42:38.881Z,82.46
2017-10-13T09:43:38.876Z,82.75
2017-10-13T09:44:38.881Z,82.85
2017-10-13T09:45:38.881Z,82.27
2017-10-13T09:46:39.212Z,82.41
2017-10-13T09:47:39.223Z,80.97
2017-10-13T09:48:39.214Z,80.68
2017-10-13T09:49:38.880Z,81.35
2017-10-13T09:50:39.215Z,80.2
2017-10-13T09:51:39.244Z,80.97
2017-10-13T09:52:39.248Z,80.49
2017-10-13T09:53:39.219Z,80.2
2017-10-13T09:54:38.887Z,80.3
2017-10-13T09:55:39.215Z,79.76
2017-10-13T09:56:39.219Z,79.72
2017-10-13T09:57:39.217Z,78.9
2017-10-13T09:58:38.897Z,79.19
2017-10-13T09:59:38.893Z,79.47
2017-10-13T10:00:39.224Z,79.67
2017-10-13T10:01:39.231Z,79.57
2017-10-13T10:02:39.227Z,79.96
2017-10-13T10:03:39.231Z,80.05
2017-10-13T10:04:39.222Z,79.28
2017-10-13T10:05:38.909Z,79.09
2017-10-13T10:06:39.236Z,79.38
2017-10-13T10:07:39.225Z,79.57
2017-10-13T10:08:39.243Z,79.86
2017-10-13T10:09:38.921Z,79.38
2017-10-13T10:10:38.991Z,78.9
2017-10-13T10:11:39.293Z,78.9
2017-10-13T10:12:38.916Z,78.8
2017-10-13T10:13:39.270Z,79.13
2017-10-13T10:14:39.012Z,78.36
2017-10-13T10:15:38.935Z,77.69
2017-10-13T10:16:38.936Z,77.59
2017-10-13T10:17:39.259Z,77.11
2017-10-13T10:18:38.943Z,77.15
2017-10-13T10:19:38.928Z,76.57
2017-10-13T10:20:39.264Z,76.77
2017-10-13T10:21:39.297Z,76.57
2017-10-13T10:22:38.943Z,76.57
2017-10-13T10:23:39.290Z,76.57
2017-10-13T10:24:38.943Z,76.57
2017-10-13T10:25:39.260Z,76.09
2017-10-13T10:26:39.264Z,76.09
2017-10-13T10:27:39.371Z,76.67
2017-10-13T10:28:39.295Z,76.86
2017-10-13T10:29:38.989Z,76.96
2017-10-13T10:30:39.267Z,76.67
2017-10-13T10:31:38.960Z,76
2017-10-13T10:32:38.978Z,77.34
2017-10-13T10:33:38.952Z,76.9
2017-10-13T10:34:39.296Z,76.04
2017-10-13T10:35:39.304Z,75.07
2017-10-13T10:36:43.603Z,74.79
2017-10-13T10:37:39.297Z,74.69
2017-10-13T10:38:39.301Z,75.46
2017-10-13T10:39:38.968Z,76.14
2017-10-13T10:40:39.301Z,75.65
2017-10-13T10:41:39.308Z,76.04
2017-10-13T10:42:38.971Z,76.42
2017-10-13T10:43:39.319Z,75.94
2017-10-13T10:44:39.310Z,76.9
2017-10-13T10:45:39.314Z,76.14
2017-10-13T10:46:39.303Z,75.65
2017-10-13T10:47:39.303Z,75.84
2017-10-13T10:48:38.986Z,75.56
2017-10-13T10:49:39.326Z,76.04
2017-10-13T10:50:39.335Z,76.9
2017-10-13T10:51:39.320Z,76.71
2017-10-13T10:52:39.384Z,76.39
2017-10-13T10:53:39.337Z,76.04
2017-10-13T10:54:39.009Z,76.23
2017-10-13T10:55:39.330Z,75.75
2017-10-13T10:56:39.002Z,75.56
2017-10-13T10:57:39.330Z,75.56
2017-10-13T10:58:39.332Z,74.98
2017-10-13T10:59:39.051Z,75.07
2017-10-13T11:00:39.033Z,76.04
2017-10-13T11:01:39.372Z,77.04
2017-10-13T11:02:39.346Z,74.05
2017-10-13T11:03:39.027Z,75.02
2017-10-13T11:04:39.405Z,76.65
2017-10-13T11:05:39.354Z,74.25
2017-10-13T11:06:39.378Z,73.77
2017-10-13T11:07:39.464Z,74.25
2017-10-13T11:08:39.030Z,74.34
2017-10-13T11:09:39.035Z,73.96
2017-10-13T11:10:39.403Z,74.25
2017-10-13T11:11:39.357Z,73.67
2017-10-13T11:12:39.038Z,72.45
2017-10-13T11:13:39.361Z,71.97
2017-10-13T11:14:39.394Z,71.4
2017-10-13T11:15:39.392Z,71.69
2017-10-13T11:16:39.378Z,71.88
2017-10-13T11:17:39.377Z,71.3
2017-10-13T11:18:39.398Z,70.53
2017-10-13T11:19:39.383Z,71.59
2017-10-13T11:20:39.386Z,70.34
2017-10-13T11:21:39.062Z,71.11
2017-10-13T11:22:39.063Z,70.92
2017-10-13T11:23:39.391Z,71.4
2017-10-13T11:24:39.081Z,71.3
2017-10-13T11:25:39.399Z,71.49
2017-10-13T11:26:39.419Z,71.55
2017-10-13T11:27:39.414Z,72.8
2017-10-13T11:28:39.417Z,71.55
2017-10-13T11:29:39.089Z,71.75
2017-10-13T11:30:39.099Z,70.59
2017-10-13T11:31:39.415Z,70.21
2017-10-13T11:32:39.433Z,70.11
2017-10-13T11:33:39.097Z,69.92
2017-10-13T11:34:39.421Z,70.11
2017-10-13T11:35:39.425Z,70.88
2017-10-13T11:36:39.426Z,70.21
2017-10-13T11:37:41.761Z,70.21
2017-10-13T11:38:39.107Z,69.82
2017-10-13T11:39:39.431Z,69.44
2017-10-13T11:40:39.460Z,69.24
2017-10-13T11:41:39.494Z,69.06
2017-10-13T11:42:39.443Z,68.86
2017-10-13T11:43:39.141Z,68.67
2017-10-13T11:44:39.453Z,67.99
2017-10-13T11:45:39.447Z,68.41
2017-10-13T11:46:39.462Z,68.6
2017-10-13T11:47:39.138Z,68.7
2017-10-13T11:48:39.136Z,68.6
2017-10-13T11:49:39.148Z,68.13
2017-10-13T11:50:39.546Z,68.03
2017-10-13T11:51:39.638Z,68.03
2017-10-13T11:52:39.516Z,68.32
2017-10-13T11:53:39.478Z,68.22
2017-10-13T11:54:39.473Z,68.41
2017-10-13T11:55:39.486Z,68.13
2017-10-13T11:56:39.488Z,67.77
2017-10-13T11:57:39.160Z,67.87
2017-10-13T11:58:39.163Z,67.1
2017-10-13T11:59:39.490Z,67.39
2017-10-13T12:00:39.496Z,67
2017-10-13T12:01:39.536Z,66.52
2017-10-13T12:02:39.498Z,66.33
2017-10-13T12:03:39.179Z,66.04
2017-10-13T12:04:39.185Z,66.24
2017-10-13T12:05:39.188Z,66.52
2017-10-13T12:06:39.515Z,66.62
2017-10-13T12:07:39.511Z,66.42
2017-10-13T12:08:39.520Z,66.24
2017-10-13T12:09:39.200Z,66.33
2017-10-13T12:10:39.203Z,66.52
2017-10-13T12:11:39.521Z,66.52
2017-10-13T12:12:39.547Z,66.97
2017-10-13T12:13:39.533Z,67
2017-10-13T12:14:39.548Z,66.81
2017-10-13T12:15:39.540Z,66.14
2017-10-13T12:16:39.543Z,66.14
2017-10-13T12:17:39.546Z,65.66
2017-10-13T12:18:39.554Z,66.24
2017-10-13T12:19:39.545Z,66.42
2017-10-13T12:20:39.556Z,66.33
2017-10-13T12:21:39.232Z,66.14
2017-10-13T12:22:39.234Z,67
2017-10-13T12:23:39.567Z,65.94
2017-10-13T12:24:39.565Z,65.85
2017-10-13T12:25:39.578Z,66.24
2017-10-13T12:26:39.580Z,65.75
2017-10-13T12:27:39.572Z,65.66
2017-10-13T12:28:39.577Z,65.85
2017-10-13T12:29:39.578Z,66.24
2017-10-13T12:30:39.584Z,65.94
2017-10-13T12:31:39.268Z,64.69
2017-10-13T12:32:39.383Z,63.64
2017-10-13T12:33:39.272Z,63.73
2017-10-13T12:34:39.294Z,63.64
2017-10-13T12:35:39.297Z,63.34
2017-10-13T12:36:39.602Z,63.64
2017-10-13T12:37:39.605Z,63.54
2017-10-13T12:38:39.647Z,62.87
2017-10-13T12:39:39.300Z,63.34
2017-10-13T12:40:39.614Z,62.57
2017-10-13T12:41:39.305Z,62.77
2017-10-13T12:42:39.618Z,62.87
2017-10-13T12:43:39.624Z,62.35
2017-10-13T12:44:39.624Z,62.83
2017-10-13T12:45:39.625Z,63.12
2017-10-13T12:46:39.645Z,63.31
2017-10-13T12:47:39.311Z,63.22
2017-10-13T12:48:39.641Z,63.6
2017-10-13T12:49:39.315Z,63.31
2017-10-13T12:50:39.640Z,63.92
2017-10-13T12:51:39.644Z,63.64
2017-10-13T12:52:39.648Z,63.25
2017-10-13T12:53:39.656Z,63.89
2017-10-13T12:54:39.650Z,64.31